Time;durP1;ratioP1;P1;durP2;ratioP2;P2;SDS_P1;SDS_P2;PMS_P1;PMS_P2;Temp;Humidity;BMP_temperature;BMP_pressure;BME280_temperature;BME280_humidity;BME280_pressure;Samples;Min_cycle;Max_cycle;Signal;HPM_P1;HPM_P2
2021/03/25 00:01:50;;;;;;;7.93;7.20;;;14.00;44.20;;;;;;5040902;28;20466;-42
2021/03/25 00:04:16;;;;;;;12.10;7.93;;;14.00;44.70;;;;;;5038753;28;20802;-42
2021/03/25 00:06:52;;;;;;;7.80;6.87;;;14.00;44.20;;;;;;5042940;28;20471;-43
2021/03/25 00:09:32;;;;;;;8.90;7.07;;;14.10;44.20;;;;;;5036262;28;20491;-42
2021/03/25 00:11:59;;;;;;;9.23;6.93;;;14.10;43.70;;;;;;5037385;28;20505;-42
2021/03/25 00:14:25;;;;;;;10.77;8.00;;;14.10;43.90;;;;;;5049491;28;20530;-42
2021/03/25 00:16:51;;;;;;;9.03;6.53;;;13.90;43.30;;;;;;5043663;28;20443;-43
2021/03/25 00:19:16;;;;;;;7.40;6.63;;;13.80;44.00;;;;;;5047391;28;20440;-43
2021/03/25 00:21:42;;;;;;;7.60;6.90;;;14.00;44.40;;;;;;5037147;28;20232;-43
2021/03/25 00:24:13;;;;;;;8.10;6.77;;;14.10;43.70;;;;;;5048367;28;20198;-42
2021/03/25 00:26:39;;;;;;;9.60;6.73;;;14.20;43.60;;;;;;5043160;28;20208;-44
2021/03/25 00:29:05;;;;;;;10.20;7.93;;;14.30;43.40;;;;;;5037007;28;20484;-42
2021/03/25 00:31:31;;;;;;;8.30;7.10;;;14.30;43.40;;;;;;5045356;28;20442;-43
2021/03/25 00:33:56;;;;;;;8.97;7.30;;;14.50;43.00;;;;;;5039859;28;20217;-42
2021/03/25 00:36:22;;;;;;;8.43;7.20;;;14.50;42.40;;;;;;5033744;28;20224;-43
2021/03/25 00:38:49;;;;;;;8.67;7.37;;;14.40;42.50;;;;;;5050816;28;20197;-43
2021/03/25 00:41:14;;;;;;;11.77;7.60;;;14.50;43.40;;;;;;5040110;28;20424;-43
2021/03/25 00:43:40;;;;;;;9.47;7.50;;;14.50;42.70;;;;;;5038783;28;20454;-42
2021/03/25 00:46:06;;;;;;;6.43;5.83;;;14.60;42.70;;;;;;5050739;28;20188;-42
2021/03/25 00:48:31;;;;;;;7.93;7.10;;;14.60;42.70;;;;;;5047063;28;20224;-43
2021/03/25 00:51:02;;;;;;;8.30;6.77;;;14.60;42.30;;;;;;5043143;28;20647;-43
2021/03/25 00:53:32;;;;;;;9.60;7.20;;;14.60;42.00;;;;;;5041852;28;20653;-43
2021/03/25 00:55:59;;;;;;;9.60;7.63;;;14.50;42.10;;;;;;5048006;28;20431;-42
2021/03/25 00:58:25;;;;;;;10.50;7.33;;;14.50;42.10;;;;;;5045519;28;20558;-42
2021/03/25 01:00:51;;;;;;;6.30;5.70;;;14.40;42.50;;;;;;5046847;28;20477;-43
2021/03/25 01:03:20;;;;;;;11.80;7.30;;;14.50;42.70;;;;;;5036895;28;20432;-43
2021/03/25 01:05:46;;;;;;;8.60;7.00;;;14.60;42.50;;;;;;5032082;28;20485;-42
2021/03/25 01:08:13;;;;;;;8.60;7.27;;;14.70;42.20;;;;;;5032611;28;20475;-42
2021/03/25 01:10:47;;;;;;;10.70;7.33;;;14.70;41.80;;;;;;5039231;28;20471;-44
2021/03/25 01:13:30;;;;;;;7.13;6.43;;;14.60;41.50;;;;;;5041555;28;20812;-42
2021/03/25 01:15:56;;;;;;;9.10;6.57;;;14.50;41.90;;;;;;5031245;28;20447;-44
2021/03/25 01:18:22;;;;;;;8.20;6.80;;;14.40;42.30;;;;;;5042013;28;20427;-43
2021/03/25 01:20:48;;;;;;;7.17;6.47;;;14.40;42.50;;;;;;5047246;28;20443;-42
2021/03/25 01:23:14;;;;;;;7.43;6.73;;;14.40;42.70;;;;;;5043396;28;20201;-42
2021/03/25 01:25:40;;;;;;;7.53;5.93;;;14.40;42.50;;;;;;5050351;28;20227;-42
2021/03/25 01:28:08;;;;;;;10.00;6.63;;;14.40;42.40;;;;;;5044006;28;20891;-43
2021/03/25 01:30:36;;;;;;;9.80;6.30;;;14.10;43.00;;;;;;5046100;28;20467;-43
2021/03/25 01:33:05;;;;;;;9.07;6.90;;;14.00;42.90;;;;;;5035541;28;20446;-43
2021/03/25 01:35:31;;;;;;;7.97;6.97;;;14.00;42.90;;;;;;5039093;28;20475;-43
2021/03/25 01:37:57;;;;;;;9.83;7.30;;;13.80;42.20;;;;;;5038420;28;20522;-45
2021/03/25 01:40:28;;;;;;;8.30;6.97;;;13.50;42.30;;;;;;5041806;28;20519;-43
2021/03/25 01:43:09;;;;;;;9.10;7.10;;;13.10;43.00;;;;;;5048991;28;20220;-43
2021/03/25 01:45:55;;;;;;;9.97;7.87;;;12.60;44.00;;;;;;5034418;28;20486;-44
2021/03/25 01:48:30;;;;;;;10.40;7.80;;;12.00;45.00;;;;;;5043094;28;20465;-44
2021/03/25 01:51:19;;;;;;;8.13;6.80;;;11.20;46.80;;;;;;5042646;28;20857;-44
2021/03/25 01:54:03;;;;;;;8.07;6.70;;;10.50;48.30;;;;;;5048709;28;20483;-45
2021/03/25 01:56:46;;;;;;;8.07;7.27;;;10.10;49.60;;;;;;5047880;28;20972;-44
2021/03/25 01:59:30;;;;;;;11.13;7.53;;;10.00;50.40;;;;;;5043050;28;20493;-46
2021/03/25 02:02:17;;;;;;;10.90;7.43;;;10.10;50.10;;;;;;5042334;28;20518;-45
2021/03/25 02:04:43;;;;;;;9.10;6.63;;;9.90;51.60;;;;;;5041488;28;20443;-43
2021/03/25 02:07:27;;;;;;;8.50;6.87;;;9.70;51.90;;;;;;5042665;28;20820;-45
2021/03/25 02:10:00;;;;;;;8.50;6.97;;;9.50;52.30;;;;;;5040911;28;20232;-42
2021/03/25 02:12:59;;;;;;;9.57;7.10;;;9.30;52.60;;;;;;5046379;28;21001;-43
2021/03/25 02:15:41;;;;;;;8.23;6.73;;;9.20;53.30;;;;;;5033600;28;20521;-44
2021/03/25 02:18:18;;;;;;;10.07;7.13;;;9.20;53.40;;;;;;5043876;28;20450;-43
2021/03/25 02:21:02;;;;;;;9.07;6.80;;;8.60;54.10;;;;;;5046670;28;20518;-43
2021/03/25 02:23:46;;;;;;;9.07;6.30;;;8.30;55.20;;;;;;5048755;28;20934;-43
2021/03/25 02:26:14;;;;;;;12.33;7.70;;;8.10;55.70;;;;;;5044671;28;20446;-43
2021/03/25 02:29:02;;;;;;;8.00;6.63;;;8.20;55.60;;;;;;5041170;28;20574;-44
2021/03/25 02:31:32;;;;;;;9.27;6.80;;;8.10;55.80;;;;;;5042345;28;20931;-44
2021/03/25 02:34:02;;;;;;;10.03;7.10;;;8.20;55.90;;;;;;5043370;28;20429;-47
2021/03/25 02:36:38;;;;;;;10.20;7.10;;;8.40;55.30;;;;;;5044168;28;20439;-46
2021/03/25 02:39:11;;;;;;;10.30;7.60;;;8.60;54.70;;;;;;5040041;28;20439;-44
2021/03/25 02:41:42;;;;;;;14.47;7.60;;;8.60;54.60;;;;;;5048392;28;20435;-44
2021/03/25 02:44:13;;;;;;;8.40;6.73;;;8.60;54.50;;;;;;5040611;28;20431;-44
2021/03/25 02:46:47;;;;;;;9.83;7.27;;;8.50;54.60;;;;;;5046102;28;20438;-45
2021/03/25 02:49:16;;;;;;;8.53;7.63;;;8.40;54.90;;;;;;5046070;28;20482;-44
2021/03/25 02:52:03;;;;;;;12.83;7.57;;;8.50;55.00;;;;;;5047955;28;20428;-43
2021/03/25 02:54:29;;;;;;;9.17;7.17;;;8.50;55.00;;;;;;5036062;28;20436;-44
2021/03/25 02:56:59;;;;;;;9.57;7.07;;;8.60;54.80;;;;;;5048890;28;20430;-43
2021/03/25 02:59:30;;;;;;;9.83;7.60;;;8.70;54.50;;;;;;5034814;28;20436;-43
2021/03/25 03:02:02;;;;;;;7.77;6.93;;;8.90;53.90;;;;;;5041128;28;20470;-44
2021/03/25 03:04:32;;;;;;;8.30;6.77;;;9.00;54.30;;;;;;5040936;28;20447;-42
2021/03/25 03:07:06;;;;;;;12.03;8.20;;;9.00;53.60;;;;;;5045905;28;20479;-45
2021/03/25 03:09:36;;;;;;;12.93;7.70;;;9.10;53.20;;;;;;5040634;28;20487;-47
2021/03/25 03:12:09;;;;;;;8.53;6.70;;;9.10;53.10;;;;;;5043071;28;20480;-43
2021/03/25 03:14:41;;;;;;;8.80;7.53;;;9.10;53.40;;;;;;5037877;28;20455;-44
2021/03/25 03:17:13;;;;;;;11.77;7.27;;;8.90;53.60;;;;;;5050424;28;20942;-43
2021/03/25 03:19:49;;;;;;;7.57;6.77;;;8.40;54.30;;;;;;5046365;28;20450;-45
2021/03/25 03:22:15;;;;;;;9.57;7.27;;;8.30;55.00;;;;;;5046620;28;20945;-43
2021/03/25 03:24:40;;;;;;;11.33;6.57;;;8.50;54.90;;;;;;5041599;28;20439;-44
2021/03/25 03:27:45;;;;;;;8.90;7.00;;;8.60;54.70;;;;;;5031987;28;20722;-43
2021/03/25 03:30:24;;;;;;;9.13;7.40;;;8.50;54.60;;;;;;5040286;28;20685;-43
2021/03/25 03:33:17;;;;;;;9.57;7.67;;;8.40;55.00;;;;;;5036519;28;20439;-43
2021/03/25 03:36:00;;;;;;;11.73;6.87;;;8.40;55.30;;;;;;5037792;28;20440;-44
2021/03/25 03:38:35;;;;;;;9.70;7.30;;;8.50;55.00;;;;;;5043409;28;20424;-42
2021/03/25 03:41:02;;;;;;;10.90;7.00;;;8.60;54.70;;;;;;5037189;28;20438;-47
2021/03/25 03:43:29;;;;;;;9.70;7.67;;;8.60;54.60;;;;;;5044962;28;20511;-43
2021/03/25 03:46:03;;;;;;;8.93;6.80;;;8.60;54.70;;;;;;5047655;28;20433;-45
2021/03/25 03:48:33;;;;;;;12.00;7.57;;;8.40;54.80;;;;;;5048769;28;20427;-43
2021/03/25 03:51:03;;;;;;;13.23;7.07;;;8.40;55.00;;;;;;5047299;28;20497;-42
2021/03/25 03:53:30;;;;;;;8.30;7.20;;;8.60;54.70;;;;;;5043373;28;20499;-43
2021/03/25 03:56:27;;;;;;;9.97;7.43;;;8.50;54.50;;;;;;5035592;28;20534;-46
2021/03/25 03:58:59;;;;;;;11.43;6.70;;;8.50;54.40;;;;;;5035575;28;20462;-46
2021/03/25 04:01:39;;;;;;;9.47;7.30;;;8.10;55.30;;;;;;5036371;28;20477;-48
2021/03/25 04:04:13;;;;;;;9.03;6.90;;;8.10;55.70;;;;;;5047304;28;20483;-47
2021/03/25 04:06:47;;;;;;;10.07;7.67;;;8.30;54.90;;;;;;5052003;28;20546;-43
2021/03/25 04:09:19;;;;;;;9.60;7.20;;;8.00;55.10;;;;;;5042169;28;20544;-43
2021/03/25 04:11:50;;;;;;;10.40;7.20;;;7.90;55.70;;;;;;5049963;28;20470;-43
2021/03/25 04:14:21;;;;;;;12.60;7.50;;;8.00;55.60;;;;;;5044682;28;20432;-44
2021/03/25 04:16:48;;;;;;;8.57;7.20;;;8.20;55.60;;;;;;5044492;28;20434;-46
2021/03/25 04:19:16;;;;;;;9.93;7.50;;;8.40;54.90;;;;;;5038802;28;20439;-42
2021/03/25 04:21:52;;;;;;;10.83;7.37;;;8.40;54.70;;;;;;5042041;28;20432;-44
2021/03/25 04:24:22;;;;;;;8.53;7.17;;;8.60;54.50;;;;;;5045317;28;20431;-44
2021/03/25 04:27:26;;;;;;;9.10;7.10;;;8.50;54.10;;;;;;5042297;28;20435;-43
2021/03/25 04:30:00;;;;;;;11.77;8.70;;;8.40;54.40;;;;;;5023039;28;20858;-43
2021/03/25 04:32:25;;;;;;;10.03;7.50;;;8.20;55.10;;;;;;5048693;28;20447;-43
2021/03/25 04:34:52;;;;;;;10.80;7.10;;;8.30;55.20;;;;;;5031894;28;20440;-43
2021/03/25 04:37:18;;;;;;;11.03;8.03;;;8.20;54.90;;;;;;5039777;28;20235;-44
2021/03/25 04:39:47;;;;;;;9.07;7.50;;;8.30;54.90;;;;;;5036986;28;20436;-42
2021/03/25 04:42:13;;;;;;;9.00;7.07;;;8.40;54.70;;;;;;5036367;28;20451;-43
2021/03/25 04:44:45;;;;;;;10.87;7.73;;;8.40;54.80;;;;;;5044493;28;20427;-43
2021/03/25 04:47:25;;;;;;;12.60;7.87;;;8.30;54.80;;;;;;5047741;28;20208;-44
2021/03/25 04:50:06;;;;;;;8.77;7.47;;;8.40;54.80;;;;;;5035783;28;20495;-45
2021/03/25 04:52:34;;;;;;;8.70;7.17;;;8.00;55.00;;;;;;5045028;28;20470;-42
2021/03/25 04:55:22;;;;;;;10.83;8.60;;;7.60;56.10;;;;;;5044036;28;20442;-44
2021/03/25 04:57:55;;;;;;;10.90;6.70;;;7.30;57.20;;;;;;5047884;28;20435;-43
2021/03/25 05:00:30;;;;;;;10.63;8.00;;;7.20;57.70;;;;;;5047531;28;20439;-44
2021/03/25 05:02:56;;;;;;;9.87;7.90;;;7.20;57.60;;;;;;5041444;28;20514;-42
2021/03/25 05:05:27;;;;;;;10.30;7.67;;;6.90;58.30;;;;;;5040806;28;20438;-44
2021/03/25 05:08:17;;;;;;;11.13;8.40;;;7.20;58.00;;;;;;5041285;28;20480;-43
2021/03/25 05:10:59;;;;;;;10.53;7.93;;;7.30;57.40;;;;;;5035656;28;20468;-43
2021/03/25 05:13:34;;;;;;;10.13;7.37;;;7.20;57.30;;;;;;5040706;28;20828;-44
2021/03/25 05:16:24;;;;;;;8.73;7.30;;;7.30;56.90;;;;;;5047311;28;20895;-44
2021/03/25 05:19:15;;;;;;;12.40;8.10;;;7.40;56.70;;;;;;5038901;28;20578;-43
2021/03/25 05:21:53;;;;;;;11.07;7.40;;;7.30;56.90;;;;;;5043938;28;20459;-43
2021/03/25 05:24:28;;;;;;;11.00;7.37;;;7.10;57.10;;;;;;5038166;28;20431;-43
2021/03/25 05:27:04;;;;;;;9.77;7.10;;;7.00;57.70;;;;;;5042713;28;20435;-42
2021/03/25 05:29:31;;;;;;;10.00;7.30;;;7.30;57.50;;;;;;5043104;28;20492;-44
2021/03/25 05:31:58;;;;;;;10.23;7.50;;;7.30;57.20;;;;;;5035162;28;20432;-43
2021/03/25 05:34:24;;;;;;;12.10;8.10;;;7.60;57.00;;;;;;5049051;28;20481;-43
2021/03/25 05:36:56;;;;;;;10.97;7.90;;;7.50;56.80;;;;;;5042919;28;20461;-43
2021/03/25 05:39:23;;;;;;;13.80;8.43;;;7.50;56.80;;;;;;5035485;28;20436;-44
2021/03/25 05:42:10;;;;;;;12.97;8.77;;;7.40;57.20;;;;;;5038236;28;20826;-44
2021/03/25 05:45:25;;;;;;;9.40;7.30;;;7.50;57.00;;;;;;5045809;28;20489;-44
2021/03/25 05:48:20;;;;;;;12.30;8.30;;;7.40;57.10;;;;;;5035065;28;20436;-43
2021/03/25 05:51:07;;;;;;;15.93;8.63;;;7.50;57.20;;;;;;5046266;28;20779;-43
2021/03/25 05:53:56;;;;;;;10.10;7.20;;;7.40;57.00;;;;;;5034189;28;20436;-42
2021/03/25 05:56:29;;;;;;;11.63;8.13;;;7.30;57.40;;;;;;5038652;28;20455;-42
2021/03/25 05:59:12;;;;;;;11.50;7.90;;;7.20;58.00;;;;;;5042653;28;20514;-47
2021/03/25 06:01:44;;;;;;;9.97;8.20;;;7.30;58.20;;;;;;5033830;28;20814;-43
2021/03/25 06:04:27;;;;;;;10.43;8.20;;;7.50;57.50;;;;;;5037020;28;20460;-43
2021/03/25 06:07:14;;;;;;;12.50;7.90;;;7.70;57.10;;;;;;5033267;28;20476;-43
2021/03/25 06:09:57;;;;;;;9.73;7.70;;;7.70;57.10;;;;;;5034975;28;20475;-44
2021/03/25 06:12:32;;;;;;;14.30;7.43;;;7.50;57.30;;;;;;5049387;28;20445;-41
2021/03/25 06:15:16;;;;;;;9.10;7.23;;;7.80;60.40;;;;;;5043818;28;20437;-42
2021/03/25 06:17:59;;;;;;;11.07;7.90;;;8.20;59.20;;;;;;5047410;28;20435;-42
2021/03/25 06:20:27;;;;;;;9.27;6.53;;;8.60;57.60;;;;;;5040028;28;20448;-43
2021/03/25 06:23:23;;;;;;;9.30;7.53;;;8.70;56.20;;;;;;5045273;28;20435;-43
2021/03/25 06:25:59;;;;;;;8.80;7.20;;;8.80;56.60;;;;;;5048542;28;20443;-43
2021/03/25 06:28:50;;;;;;;9.40;8.17;;;9.40;57.50;;;;;;5041928;28;20435;-43
2021/03/25 06:31:21;;;;;;;9.20;7.27;;;10.20;53.20;;;;;;5040787;28;20439;-42
2021/03/25 06:34:05;;;;;;;9.47;7.17;;;10.70;51.40;;;;;;5038415;28;20456;-43
2021/03/25 06:36:43;;;;;;;8.10;7.10;;;11.20;50.10;;;;;;5035612;28;20484;-43
2021/03/25 06:39:22;;;;;;;9.13;7.70;;;11.40;49.30;;;;;;5048633;28;20469;-43
2021/03/25 06:42:09;;;;;;;10.30;7.57;;;11.60;48.70;;;;;;5044450;28;20543;-43
2021/03/25 06:44:41;;;;;;;10.57;8.40;;;11.70;48.20;;;;;;5045033;28;20472;-44
2021/03/25 06:47:18;;;;;;;10.27;7.30;;;11.90;47.60;;;;;;5043587;28;20427;-43
2021/03/25 06:49:53;;;;;;;10.80;7.70;;;12.10;47.40;;;;;;5042247;28;21020;-42
2021/03/25 06:52:26;;;;;;;10.63;7.40;;;12.20;47.30;;;;;;5047199;28;20777;-43
2021/03/25 06:55:12;;;;;;;10.80;8.43;;;12.60;46.90;;;;;;5045500;28;20441;-43
2021/03/25 06:57:43;;;;;;;9.60;7.40;;;13.10;45.90;;;;;;5044831;28;20910;-43
2021/03/25 07:00:14;;;;;;;10.67;7.80;;;13.40;45.10;;;;;;5044785;28;20427;-48
2021/03/25 07:02:44;;;;;;;7.90;7.10;;;13.70;44.60;;;;;;5053466;28;20518;-45
2021/03/25 07:05:20;;;;;;;10.37;8.20;;;14.00;44.30;;;;;;5044914;28;20446;-43
2021/03/25 07:07:52;;;;;;;9.77;7.73;;;14.10;44.10;;;;;;5043177;28;20483;-44
2021/03/25 07:10:18;;;;;;;9.83;7.70;;;14.20;43.40;;;;;;5042652;28;20568;-44
2021/03/25 07:12:47;;;;;;;10.40;8.50;;;14.30;43.60;;;;;;5045143;28;20440;-45
2021/03/25 07:15:23;;;;;;;7.90;7.10;;;14.50;43.30;;;;;;5035155;28;20217;-44
2021/03/25 07:17:52;;;;;;;9.17;7.93;;;14.50;42.70;;;;;;5048670;28;20462;-44
2021/03/25 07:20:34;;;;;;;12.30;8.33;;;14.60;42.90;;;;;;5044312;28;20435;-43
2021/03/25 07:23:11;;;;;;;9.13;7.37;;;14.40;42.90;;;;;;5049267;28;20427;-44
2021/03/25 07:25:50;;;;;;;9.03;8.03;;;14.40;43.50;;;;;;5044202;28;21251;-44
2021/03/25 07:28:22;;;;;;;9.00;7.80;;;14.70;44.00;;;;;;5042487;28;20443;-43
2021/03/25 07:30:53;;;;;;;10.30;8.43;;;15.00;42.90;;;;;;5048548;28;20455;-43
2021/03/25 07:33:37;;;;;;;9.50;7.30;;;14.90;42.50;;;;;;5044899;28;20432;-44
2021/03/25 07:36:09;;;;;;;9.53;7.77;;;14.60;43.10;;;;;;5047829;28;20943;-42
2021/03/25 07:38:37;;;;;;;8.90;7.27;;;14.30;43.90;;;;;;5037878;28;20839;-42
2021/03/25 07:41:12;;;;;;;8.87;7.90;;;14.50;44.20;;;;;;5042041;28;20825;-43
2021/03/25 07:44:06;;;;;;;9.53;7.63;;;14.80;43.80;;;;;;5037263;28;20489;-42
2021/03/25 07:46:32;;;;;;;13.33;8.03;;;14.40;43.80;;;;;;5045443;28;20502;-43
2021/03/25 07:49:28;;;;;;;9.30;7.67;;;14.10;44.50;;;;;;5047732;28;20981;-43
2021/03/25 07:51:56;;;;;;;9.33;7.90;;;14.20;45.10;;;;;;5042728;28;20205;-44
2021/03/25 07:54:40;;;;;;;9.07;7.67;;;14.50;44.60;;;;;;5037756;28;20795;-44
2021/03/25 07:57:11;;;;;;;12.40;8.37;;;14.50;43.90;;;;;;5035401;28;20506;-42
2021/03/25 07:59:40;;;;;;;9.83;7.80;;;14.70;44.20;;;;;;5042266;28;20526;-42
2021/03/25 08:02:25;;;;;;;9.30;8.10;;;15.00;43.60;;;;;;5040578;28;20447;-44
2021/03/25 08:04:50;;;;;;;10.47;8.23;;;15.10;43.30;;;;;;5049770;28;20442;-43
2021/03/25 08:07:16;;;;;;;9.53;8.00;;;15.10;43.40;;;;;;5045592;28;20516;-43
2021/03/25 08:09:52;;;;;;;9.87;8.03;;;15.60;42.90;;;;;;5047577;28;20228;-42
2021/03/25 08:12:23;;;;;;;8.00;6.63;;;15.80;42.10;;;;;;5042344;28;20188;-43
2021/03/25 08:14:50;;;;;;;11.10;7.80;;;16.00;41.60;;;;;;5048152;28;20496;-44
2021/03/25 08:17:21;;;;;;;7.27;6.57;;;16.20;41.40;;;;;;5047153;28;20440;-42
2021/03/25 08:20:07;;;;;;;8.80;7.90;;;16.30;41.30;;;;;;5042528;28;20436;-44
2021/03/25 08:22:55;;;;;;;8.60;7.57;;;16.60;41.00;;;;;;5036988;28;20444;-42
2021/03/25 08:25:41;;;;;;;8.67;6.40;;;16.80;40.60;;;;;;5037865;28;20436;-42
2021/03/25 08:28:30;;;;;;;10.40;7.00;;;16.80;40.50;;;;;;5042422;28;20516;-43
2021/03/25 08:31:08;;;;;;;9.93;6.80;;;17.10;40.20;;;;;;5041280;28;20477;-47
2021/03/25 08:33:56;;;;;;;8.47;6.73;;;17.40;40.00;;;;;;5038988;28;20456;-43
2021/03/25 08:36:53;;;;;;;7.50;6.70;;;17.60;39.80;;;;;;5034088;28;20454;-43
2021/03/25 08:39:34;;;;;;;9.83;7.03;;;17.80;39.50;;;;;;5044657;28;20431;-42
2021/03/25 08:42:31;;;;;;;11.87;6.33;;;17.60;39.20;;;;;;5040585;28;20475;-45
2021/03/25 08:45:20;;;;;;;8.67;7.10;;;17.80;39.60;;;;;;5042135;28;20463;-43
2021/03/25 08:47:51;;;;;;;6.57;5.53;;;17.70;38.90;;;;;;5046010;28;20450;-44
2021/03/25 08:50:48;;;;;;;7.37;6.43;;;17.70;38.70;;;;;;5045980;28;20533;-42
2021/03/25 08:53:27;;;;;;;6.03;5.40;;;17.90;38.20;;;;;;5034532;28;20466;-45
2021/03/25 08:55:57;;;;;;;7.60;5.40;;;17.90;38.30;;;;;;5041027;28;20862;-42
2021/03/25 08:58:30;;;;;;;6.97;5.50;;;17.90;37.50;;;;;;5036817;28;20435;-45
2021/03/25 09:01:00;;;;;;;6.67;5.97;;;18.20;37.50;;;;;;5031116;28;20524;-46
2021/03/25 09:03:33;;;;;;;8.50;6.30;;;18.30;38.00;;;;;;5045498;28;20427;-42
2021/03/25 09:06:01;;;;;;;7.20;5.20;;;18.30;37.20;;;;;;5044379;28;20466;-45
2021/03/25 09:08:29;;;;;;;7.37;5.90;;;18.40;37.40;;;;;;5045082;28;20544;-42
2021/03/25 09:10:59;;;;;;;7.20;6.00;;;18.60;36.30;;;;;;5037571;28;20438;-42
2021/03/25 09:13:32;;;;;;;6.47;5.10;;;18.90;35.60;;;;;;5036879;28;20440;-44
2021/03/25 09:16:05;;;;;;;7.83;5.37;;;19.00;34.60;;;;;;5035832;28;20440;-44
2021/03/25 09:18:31;;;;;;;6.70;5.47;;;19.10;34.90;;;;;;5037252;28;20435;-45
2021/03/25 09:21:08;;;;;;;6.10;5.50;;;19.20;34.50;;;;;;5039211;28;20450;-42
2021/03/25 09:23:34;;;;;;;5.97;5.37;;;19.50;34.60;;;;;;5034427;28;20235;-43
2021/03/25 09:26:23;;;;;;;6.27;5.47;;;19.60;34.60;;;;;;5041274;28;20501;-42
2021/03/25 09:29:02;;;;;;;7.10;4.93;;;19.80;33.30;;;;;;5048747;28;20462;-42
2021/03/25 09:31:36;;;;;;;7.33;4.43;;;19.90;33.90;;;;;;5046643;28;20454;-44
2021/03/25 09:34:11;;;;;;;5.97;5.00;;;20.00;33.20;;;;;;5036110;28;20594;-44
2021/03/25 09:36:36;;;;;;;9.93;4.97;;;20.00;32.90;;;;;;5035838;28;20443;-42
2021/03/25 09:39:02;;;;;;;5.53;4.87;;;20.10;32.60;;;;;;5041375;28;20446;-41
2021/03/25 09:41:29;;;;;;;6.17;5.13;;;20.40;33.10;;;;;;5044717;28;20203;-42
2021/03/25 09:43:54;;;;;;;6.73;5.37;;;20.60;33.00;;;;;;5044174;28;20447;-42
2021/03/25 09:46:35;;;;;;;8.43;5.40;;;20.70;32.70;;;;;;5037723;28;20434;-42
2021/03/25 09:49:19;;;;;;;6.37;5.07;;;20.80;32.20;;;;;;5039107;28;20578;-43
2021/03/25 09:54:35;;;;;;;5.83;5.33;;;21.10;31.80;;;;;;5037557;28;20454;-42
2021/03/25 09:57:40;;;;;;;5.80;4.88;;;21.30;32.00;;;;;;5036093;28;20420;-43
2021/03/25 10:00:27;;;;;;;5.73;5.03;;;21.40;31.80;;;;;;5038720;28;20224;-43
2021/03/25 10:03:04;;;;;;;9.67;5.70;;;21.50;32.10;;;;;;5041834;28;20467;-42
2021/03/25 10:05:36;;;;;;;7.83;6.00;;;21.60;31.50;;;;;;5037257;28;20930;-42
2021/03/25 10:08:20;;;;;;;5.70;4.40;;;21.60;31.90;;;;;;5036218;28;20535;-43
2021/03/25 10:10:55;;;;;;;5.20;4.70;;;21.80;31.60;;;;;;5034687;28;20487;-44
2021/03/25 10:13:34;;;;;;;5.13;4.50;;;21.90;31.50;;;;;;5038664;28;20800;-43
2021/03/25 10:16:19;;;;;;;5.23;4.70;;;22.10;31.30;;;;;;5036253;28;20439;-42
2021/03/25 10:18:49;;;;;;;7.60;5.67;;;22.20;32.10;;;;;;5047117;28;20438;-43
2021/03/25 10:21:36;;;;;;;5.87;5.37;;;22.30;31.10;;;;;;5052544;28;20443;-44
2021/03/25 10:24:15;;;;;;;5.87;5.27;;;22.20;31.10;;;;;;5041875;28;20542;-47
2021/03/25 10:26:43;;;;;;;6.70;5.00;;;22.30;30.20;;;;;;5038030;28;20470;-43
2021/03/25 10:29:11;;;;;;;6.27;5.17;;;22.50;29.90;;;;;;5042515;28;20866;-44
2021/03/25 10:31:55;;;;;;;8.63;5.30;;;22.70;30.70;;;;;;5046899;28;20470;-43
2021/03/25 10:34:26;;;;;;;6.97;4.90;;;22.80;30.90;;;;;;5046616;28;20449;-42
2021/03/25 10:37:03;;;;;;;7.33;5.10;;;23.10;30.80;;;;;;5046450;28;20446;-43
2021/03/25 10:39:38;;;;;;;7.30;5.17;;;23.20;30.40;;;;;;5052671;28;20533;-43
2021/03/25 10:42:27;;;;;;;6.60;5.47;;;23.20;30.60;;;;;;5048521;28;20430;-43
2021/03/25 10:44:53;;;;;;;6.47;5.23;;;23.40;30.40;;;;;;5043558;28;21302;-43
2021/03/25 10:47:22;;;;;;;6.93;5.00;;;23.60;29.80;;;;;;5051122;28;20840;-42
2021/03/25 10:49:52;;;;;;;6.57;5.50;;;23.70;29.70;;;;;;5040926;28;20486;-44
2021/03/25 10:52:25;;;;;;;7.70;4.73;;;23.80;29.60;;;;;;5043723;28;20454;-42
2021/03/25 10:54:52;;;;;;;7.50;5.70;;;23.80;30.00;;;;;;5040593;28;20466;-43
2021/03/25 10:57:23;;;;;;;9.40;6.10;;;23.90;29.90;;;;;;5049411;28;20438;-42
2021/03/25 11:00:01;;;;;;;8.40;6.30;;;23.90;28.80;;;;;;5040583;28;20432;-42
2021/03/25 11:02:30;;;;;;;7.80;6.10;;;24.00;29.10;;;;;;5036993;28;20530;-42
2021/03/25 11:05:23;;;;;;;7.40;5.80;;;24.00;28.60;;;;;;5038571;28;20443;-42
2021/03/25 11:07:50;;;;;;;8.03;6.77;;;24.00;28.80;;;;;;5036846;28;20561;-42
2021/03/25 11:10:28;;;;;;;10.77;6.90;;;24.10;29.50;;;;;;5047206;28;20495;-44
2021/03/25 11:13:07;;;;;;;9.43;6.50;;;24.10;30.00;;;;;;5037310;28;21069;-43
2021/03/25 11:15:37;;;;;;;10.30;7.07;;;24.30;30.10;;;;;;5048656;28;20439;-43
2021/03/25 11:18:29;;;;;;;10.60;6.53;;;24.30;29.60;;;;;;5047139;28;20491;-43
2021/03/25 11:20:56;;;;;;;8.00;6.47;;;24.40;29.80;;;;;;5042914;28;20444;-43
2021/03/25 11:23:25;;;;;;;10.20;7.10;;;24.70;29.50;;;;;;5047325;28;20474;-44
2021/03/25 11:26:00;;;;;;;9.20;7.27;;;24.90;29.60;;;;;;5041984;28;20432;-42
2021/03/25 11:28:28;;;;;;;12.43;7.87;;;25.00;29.00;;;;;;5047296;28;20434;-47
2021/03/25 11:31:22;;;;;;;10.17;7.00;;;25.10;28.60;;;;;;5041482;28;20451;-43
2021/03/25 11:33:50;;;;;;;11.47;7.10;;;25.10;28.40;;;;;;5038361;28;20837;-43
2021/03/25 11:36:38;;;;;;;10.10;6.57;;;25.00;29.00;;;;;;5040176;28;20420;-43
2021/03/25 11:39:16;;;;;;;10.27;7.47;;;24.90;27.80;;;;;;5048635;28;20451;-45
2021/03/25 11:41:43;;;;;;;12.43;6.90;;;25.10;28.70;;;;;;5035447;28;20448;-43
2021/03/25 11:44:09;;;;;;;9.70;6.83;;;25.20;28.00;;;;;;5039519;28;20526;-43
2021/03/25 11:46:45;;;;;;;11.50;8.10;;;25.30;27.30;;;;;;5044082;28;20470;-43
2021/03/25 11:49:18;;;;;;;12.57;8.00;;;25.20;27.90;;;;;;5040225;28;20488;-43
2021/03/25 11:51:45;;;;;;;14.13;8.20;;;25.20;28.00;;;;;;5038120;28;20547;-43
2021/03/25 11:54:27;;;;;;;8.97;7.47;;;25.40;27.00;;;;;;5030329;28;20473;-45
2021/03/25 11:56:56;;;;;;;10.13;7.33;;;25.60;27.50;;;;;;5037045;28;20494;-43
2021/03/25 11:59:27;;;;;;;12.63;7.80;;;25.60;27.60;;;;;;5051497;28;20439;-47
2021/03/25 12:02:23;;;;;;;10.97;7.27;;;25.80;26.80;;;;;;5048451;28;20439;-43
2021/03/25 12:04:49;;;;;;;9.67;6.87;;;26.00;26.80;;;;;;5034773;28;20444;-43
2021/03/25 12:07:19;;;;;;;11.00;7.17;;;26.00;27.10;;;;;;5034298;28;20476;-43
2021/03/25 12:09:58;;;;;;;11.60;7.60;;;26.10;27.50;;;;;;5045196;28;20868;-44
2021/03/25 12:12:24;;;;;;;10.17;7.77;;;26.00;26.60;;;;;;5041148;28;20449;-43
2021/03/25 12:14:50;;;;;;;11.93;6.70;;;26.00;26.30;;;;;;5040547;28;20440;-43
2021/03/25 12:17:16;;;;;;;12.20;9.20;;;25.70;27.10;;;;;;5032782;28;20437;-42
2021/03/25 12:19:42;;;;;;;9.83;7.20;;;25.40;27.00;;;;;;5042296;28;20720;-42
2021/03/25 12:22:11;;;;;;;10.03;6.77;;;25.10;27.60;;;;;;5042576;28;20612;-43
2021/03/25 12:24:37;;;;;;;13.83;7.40;;;25.30;27.20;;;;;;5044170;28;20197;-42
2021/03/25 12:27:03;;;;;;;11.30;7.37;;;25.60;27.60;;;;;;5040478;28;20432;-44
2021/03/25 12:29:29;;;;;;;9.43;6.77;;;25.70;27.10;;;;;;5046495;28;20242;-42
2021/03/25 12:31:56;;;;;;;11.00;7.53;;;25.70;27.00;;;;;;5035334;28;20436;-42
2021/03/25 12:34:22;;;;;;;9.20;7.47;;;25.90;27.10;;;;;;5044824;28;20246;-43
2021/03/25 12:36:48;;;;;;;10.50;7.30;;;25.90;27.20;;;;;;5048342;28;20532;-42
2021/03/25 12:39:14;;;;;;;10.00;8.00;;;25.90;27.40;;;;;;5036557;28;20447;-44
2021/03/25 12:41:46;;;;;;;13.77;8.90;;;25.90;27.60;;;;;;5049948;28;20196;-42
2021/03/25 12:44:13;;;;;;;11.07;7.00;;;25.60;26.80;;;;;;5050690;28;20640;-42
2021/03/25 12:46:40;;;;;;;9.43;6.83;;;25.40;28.10;;;;;;5043080;28;20444;-43
2021/03/25 12:49:06;;;;;;;11.87;7.23;;;25.60;28.50;;;;;;5041726;28;20581;-43
2021/03/25 12:51:32;;;;;;;8.90;6.80;;;25.70;27.20;;;;;;5042911;28;20862;-43
2021/03/25 12:53:58;;;;;;;9.57;6.43;;;26.00;27.50;;;;;;5047044;28;20426;-42
2021/03/25 12:56:31;;;;;;;10.13;7.47;;;26.00;27.50;;;;;;5047691;28;20238;-43
2021/03/25 12:58:59;;;;;;;8.80;6.27;;;26.00;27.80;;;;;;5048621;28;20196;-43
2021/03/25 13:01:26;;;;;;;8.63;6.80;;;26.10;27.40;;;;;;5046892;28;20435;-43
2021/03/25 13:03:53;;;;;;;10.20;7.23;;;26.30;27.60;;;;;;5046136;28;20434;-42
2021/03/25 13:06:19;;;;;;;9.73;6.97;;;26.50;27.10;;;;;;5044133;28;20439;-43
2021/03/25 13:08:45;;;;;;;10.90;7.10;;;26.50;27.00;;;;;;5049172;28;20432;-44
2021/03/25 13:11:14;;;;;;;10.37;8.10;;;26.50;27.50;;;;;;5045751;28;22485;-44
2021/03/25 13:13:40;;;;;;;12.33;8.30;;;26.60;27.20;;;;;;5047701;28;20193;-44
2021/03/25 13:16:06;;;;;;;7.57;6.17;;;26.80;27.10;;;;;;5043901;28;20431;-43
2021/03/25 13:18:32;;;;;;;9.43;6.40;;;26.60;26.90;;;;;;5041614;28;20200;-44
2021/03/25 13:20:58;;;;;;;9.17;7.30;;;26.60;26.90;;;;;;5050590;28;20189;-45
2021/03/25 13:23:24;;;;;;;8.70;6.20;;;26.60;27.10;;;;;;5044105;28;20450;-44
2021/03/25 13:25:51;;;;;;;8.10;5.53;;;26.60;27.20;;;;;;5044278;28;20473;-47